Time;durP1;ratioP1;P1;durP2;ratioP2;P2;SDS_P1;SDS_P2;PMS_P1;PMS_P2;Temp;Humidity;BMP_temperature;BMP_pressure;BME280_temperature;BME280_humidity;BME280_pressure;Samples;Min_cycle;Max_cycle;Signal;HPM_P1;HPM_P2
2021/08/17 00:02:23;;;;;;;10.00;4.45;;;;;;;;;;4880260;29;20556;-89
2021/08/17 00:04:49;;;;;;;7.65;4.68;;;;;;;;;;4883191;29;20124;-89
2021/08/17 00:07:16;;;;;;;8.27;4.68;;;;;;;;;;4887446;29;20053;-88
2021/08/17 00:09:41;;;;;;;6.47;4.22;;;;;;;;;;4879421;29;20021;-88
2021/08/17 00:12:07;;;;;;;10.32;5.18;;;;;;;;;;4884570;29;20372;-89
2021/08/17 00:14:32;;;;;;;8.70;5.25;;;;;;;;;;4884627;29;20499;-87
2021/08/17 00:16:58;;;;;;;10.98;5.75;;;;;;;;;;4887773;29;20058;-89
2021/08/17 00:19:23;;;;;;;7.85;4.80;;;;;;;;;;4882987;29;20073;-87
2021/08/17 00:21:48;;;;;;;10.15;4.97;;;;;;;;;;4879390;29;20326;-88
2021/08/17 00:24:13;;;;;;;7.72;5.05;;;;;;;;;;4880249;29;20033;-88
2021/08/17 00:26:39;;;;;;;9.23;5.32;;;;;;;;;;4893138;29;20116;-88
2021/08/17 00:29:04;;;;;;;8.40;5.28;;;;;;;;;;4888998;29;20031;-86
2021/08/17 00:31:30;;;;;;;7.82;4.85;;;;;;;;;;4880839;29;20112;-87
2021/08/17 00:33:55;;;;;;;8.70;5.33;;;;;;;;;;4875464;29;20049;-87
2021/08/17 00:36:20;;;;;;;7.95;5.25;;;;;;;;;;4878359;29;20749;-88
2021/08/17 00:38:46;;;;;;;7.22;4.38;;;;;;;;;;4875019;29;20037;-87
2021/08/17 00:41:12;;;;;;;7.87;4.97;;;;;;;;;;4884239;29;20084;-86
2021/08/17 00:43:38;;;;;;;7.63;5.25;;;;;;;;;;4888668;29;20724;-87
2021/08/17 00:46:04;;;;;;;8.23;4.90;;;;;;;;;;4878878;29;20380;-87
2021/08/17 00:48:30;;;;;;;10.13;6.10;;;;;;;;;;4875334;29;20013;-87
2021/08/17 00:50:55;;;;;;;8.82;5.32;;;;;;;;;;4878846;29;20025;-87
2021/08/17 00:53:21;;;;;;;8.55;4.80;;;;;;;;;;4889314;29;20492;-88
2021/08/17 00:55:48;;;;;;;7.15;5.03;;;;;;;;;;4881876;29;20060;-87
2021/08/17 00:58:13;;;;;;;11.50;5.70;;;;;;;;;;4877948;29;20380;-88
2021/08/17 01:00:38;;;;;;;9.03;5.53;;;;;;;;;;4879477;29;20028;-86
2021/08/17 01:03:05;;;;;;;9.50;5.40;;;;;;;;;;4890019;29;20302;-87
2021/08/17 01:05:30;;;;;;;7.63;4.85;;;;;;;;;;4886753;29;20932;-87
2021/08/17 01:07:56;;;;;;;9.25;5.30;;;;;;;;;;4885257;29;20033;-86
2021/08/17 01:10:22;;;;;;;8.10;5.35;;;;;;;;;;4886494;29;20380;-87
2021/08/17 01:12:47;;;;;;;9.03;5.10;;;;;;;;;;4885099;29;20027;-86
2021/08/17 01:15:14;;;;;;;8.45;5.15;;;;;;;;;;4885564;29;20360;-86
2021/08/17 01:17:39;;;;;;;9.85;5.47;;;;;;;;;;4877688;29;20032;-86
2021/08/17 01:20:05;;;;;;;13.05;5.60;;;;;;;;;;4881427;29;20053;-88
2021/08/17 01:22:30;;;;;;;9.00;5.35;;;;;;;;;;4886203;29;20025;-88
2021/08/17 01:24:56;;;;;;;9.80;5.60;;;;;;;;;;4884090;29;20195;-86
2021/08/17 01:27:21;;;;;;;8.55;5.22;;;;;;;;;;4896004;29;20020;-88
2021/08/17 01:29:47;;;;;;;10.77;4.97;;;;;;;;;;4878877;29;20440;-87
2021/08/17 01:32:17;;;;;;;9.20;4.63;;;;;;;;;;4883355;29;20475;-88
2021/08/17 01:34:42;;;;;;;;;;;;;;;;;;4882080;29;20549;-87
2021/08/17 01:37:07;;;;;;;10.03;5.87;;;;;;;;;;4878114;29;20010;-87
2021/08/17 01:39:33;;;;;;;8.52;4.82;;;;;;;;;;4886312;29;20289;-87
2021/08/17 01:41:58;;;;;;;10.32;5.47;;;;;;;;;;4903894;29;20016;-87
2021/08/17 01:44:24;;;;;;;7.55;5.10;;;;;;;;;;4910506;29;20076;-87
2021/08/17 01:46:49;;;;;;;13.23;4.45;;;;;;;;;;4893411;29;20025;-85
2021/08/17 01:49:18;;;;;;;10.07;5.15;;;;;;;;;;4902315;29;20054;-85
2021/08/17 01:51:46;;;;;;;13.07;5.93;;;;;;;;;;4902081;29;20017;-86
2021/08/17 01:54:13;;;;;;;9.73;5.18;;;;;;;;;;4901768;29;20051;-86
2021/08/17 01:56:38;;;;;;;10.02;4.93;;;;;;;;;;4889779;29;20363;-85
2021/08/17 01:59:03;;;;;;;10.75;4.93;;;;;;;;;;4879929;29;20033;-86
2021/08/17 02:01:29;;;;;;;10.23;5.53;;;;;;;;;;4888786;29;20035;-86
2021/08/17 02:03:54;;;;;;;8.38;5.00;;;;;;;;;;4891067;29;20454;-87
2021/08/17 02:06:20;;;;;;;7.63;4.53;;;;;;;;;;4888525;29;20474;-87
2021/08/17 02:08:45;;;;;;;10.48;5.88;;;;;;;;;;4885533;29;20077;-87
2021/08/17 02:11:10;;;;;;;8.45;4.80;;;;;;;;;;4886862;29;20036;-87
2021/08/17 02:13:36;;;;;;;8.55;5.40;;;;;;;;;;4883407;29;20032;-85
2021/08/17 02:16:01;;;;;;;8.27;4.70;;;;;;;;;;4884529;29;20025;-87
2021/08/17 02:18:28;;;;;;;8.70;5.00;;;;;;;;;;4884056;29;20115;-88
2021/08/17 02:20:53;;;;;;;10.20;6.32;;;;;;;;;;4885052;29;20044;-88
2021/08/17 02:23:18;;;;;;;9.43;5.25;;;;;;;;;;4878094;29;20484;-87
2021/08/17 02:25:44;;;;;;;10.40;4.65;;;;;;;;;;4883313;29;20036;-88
2021/08/17 02:28:10;;;;;;;11.10;5.82;;;;;;;;;;4872472;29;20032;-86
2021/08/17 02:30:35;;;;;;;7.40;4.65;;;;;;;;;;4874040;29;20059;-88
2021/08/17 02:33:01;;;;;;;8.73;4.65;;;;;;;;;;4879602;29;20081;-87
2021/08/17 02:35:26;;;;;;;6.45;4.63;;;;;;;;;;4880913;29;20029;-87
2021/08/17 02:37:52;;;;;;;8.85;4.70;;;;;;;;;;4883435;29;20039;-87
2021/08/17 02:40:18;;;;;;;8.02;5.10;;;;;;;;;;4875564;29;20121;-87
2021/08/17 02:42:43;;;;;;;9.02;5.28;;;;;;;;;;4884419;29;20021;-87
2021/08/17 02:45:09;;;;;;;7.68;4.78;;;;;;;;;;4881060;29;20035;-87
2021/08/17 02:47:34;;;;;;;11.52;6.05;;;;;;;;;;4876223;29;20042;-86
2021/08/17 02:50:00;;;;;;;8.98;4.63;;;;;;;;;;4883592;29;20080;-86
2021/08/17 02:52:26;;;;;;;8.25;4.93;;;;;;;;;;4884458;29;20056;-87
2021/08/17 02:54:51;;;;;;;8.25;4.68;;;;;;;;;;4875360;29;20041;-88
2021/08/17 02:57:20;;;;;;;8.98;4.80;;;;;;;;;;4886869;29;20032;-87
2021/08/17 02:59:48;;;;;;;11.00;5.07;;;;;;;;;;4877936;29;20053;-87
2021/08/17 03:02:13;;;;;;;8.00;4.65;;;;;;;;;;4879389;29;20599;-87
2021/08/17 03:04:40;;;;;;;9.52;5.63;;;;;;;;;;4860043;29;20044;-88
2021/08/17 03:07:05;;;;;;;7.30;4.97;;;;;;;;;;4877012;29;20053;-89
2021/08/17 03:09:30;;;;;;;8.38;5.68;;;;;;;;;;4887093;29;20191;-87
2021/08/17 03:11:56;;;;;;;8.98;4.85;;;;;;;;;;4885405;29;20477;-89
2021/08/17 03:14:21;;;;;;;11.07;5.72;;;;;;;;;;4886843;29;20137;-89
2021/08/17 03:16:47;;;;;;;9.50;4.80;;;;;;;;;;4879716;29;20073;-89
2021/08/17 03:19:12;;;;;;;9.70;5.88;;;;;;;;;;4877876;29;20027;-88
2021/08/17 03:21:37;;;;;;;9.50;4.85;;;;;;;;;;4889772;29;20037;-90
2021/08/17 03:24:03;;;;;;;9.13;5.10;;;;;;;;;;4880751;29;20025;-88
2021/08/17 03:26:28;;;;;;;12.10;6.13;;;;;;;;;;4875843;29;20026;-89
2021/08/17 03:28:54;;;;;;;9.27;5.07;;;;;;;;;;4879443;29;20037;-89
2021/08/17 03:31:19;;;;;;;10.27;5.22;;;;;;;;;;4888498;29;20020;-88
2021/08/17 03:33:44;;;;;;;8.40;4.80;;;;;;;;;;4887299;29;20024;-87
2021/08/17 03:36:10;;;;;;;9.60;4.88;;;;;;;;;;4884430;29;20029;-85
2021/08/17 03:38:35;;;;;;;8.48;4.38;;;;;;;;;;4879541;29;20534;-86
2021/08/17 03:41:01;;;;;;;8.18;4.72;;;;;;;;;;4887516;29;20716;-87
2021/08/17 03:43:26;;;;;;;8.80;4.60;;;;;;;;;;4886179;29;20480;-88
2021/08/17 03:45:52;;;;;;;9.75;5.05;;;;;;;;;;4873347;29;20505;-87
2021/08/17 03:48:17;;;;;;;7.65;4.88;;;;;;;;;;4887895;29;20104;-86
2021/08/17 03:50:43;;;;;;;8.90;4.55;;;;;;;;;;4883568;29;20476;-87
2021/08/17 03:53:08;;;;;;;9.85;4.55;;;;;;;;;;4879122;29;20033;-88
2021/08/17 03:55:34;;;;;;;9.73;5.03;;;;;;;;;;4890345;29;20107;-87
2021/08/17 03:57:59;;;;;;;9.52;5.20;;;;;;;;;;4884060;29;20021;-86
2021/08/17 04:00:25;;;;;;;10.98;5.03;;;;;;;;;;4878420;29;20017;-87
2021/08/17 04:02:51;;;;;;;8.25;4.85;;;;;;;;;;4881263;29;20025;-87
2021/08/17 04:05:16;;;;;;;9.10;4.38;;;;;;;;;;4886306;29;20471;-88
2021/08/17 04:07:42;;;;;;;9.35;4.97;;;;;;;;;;4882454;29;20116;-88
2021/08/17 04:10:08;;;;;;;7.95;4.78;;;;;;;;;;4886012;29;20029;-88
2021/08/17 04:12:33;;;;;;;9.48;4.47;;;;;;;;;;4879407;29;20033;-87
2021/08/17 04:14:58;;;;;;;9.13;5.22;;;;;;;;;;4877072;29;20648;-88
2021/08/17 04:17:24;;;;;;;6.43;4.15;;;;;;;;;;4890157;29;20084;-88
2021/08/17 04:19:49;;;;;;;9.32;4.65;;;;;;;;;;4879509;29;20028;-88
2021/08/17 04:22:14;;;;;;;6.05;4.00;;;;;;;;;;4885086;29;20036;-87
2021/08/17 04:24:40;;;;;;;9.70;4.35;;;;;;;;;;4880468;29;20028;-86
2021/08/17 04:27:05;;;;;;;7.30;4.40;;;;;;;;;;4887500;29;20028;-86
2021/08/17 04:29:31;;;;;;;8.95;5.10;;;;;;;;;;4881639;29;20021;-85
2021/08/17 04:31:56;;;;;;;7.88;4.30;;;;;;;;;;4885002;29;20029;-86
2021/08/17 04:34:21;;;;;;;9.05;4.53;;;;;;;;;;4883008;29;20020;-86
2021/08/17 04:36:47;;;;;;;7.93;4.40;;;;;;;;;;4880408;29;20115;-87
2021/08/17 04:39:15;;;;;;;10.23;5.10;;;;;;;;;;4881096;29;20048;-87
2021/08/17 04:41:40;;;;;;;10.35;5.25;;;;;;;;;;4882526;29;20490;-87
2021/08/17 04:44:06;;;;;;;7.57;4.47;;;;;;;;;;4886686;29;20071;-88
2021/08/17 04:46:31;;;;;;;8.75;4.70;;;;;;;;;;4884883;29;20024;-87
2021/08/17 04:48:57;;;;;;;7.25;4.50;;;;;;;;;;4880911;29;20037;-87
2021/08/17 04:51:23;;;;;;;10.30;4.35;;;;;;;;;;4883624;29;20033;-86
2021/08/17 04:53:48;;;;;;;8.70;4.28;;;;;;;;;;4881212;29;20443;-87
2021/08/17 04:56:14;;;;;;;9.50;5.15;;;;;;;;;;4889552;29;20141;-84
2021/08/17 04:58:39;;;;;;;7.55;4.68;;;;;;;;;;4877647;29;20474;-84
2021/08/17 05:01:05;;;;;;;9.27;5.15;;;;;;;;;;4876575;29;20025;-85
2021/08/17 05:03:30;;;;;;;9.65;5.10;;;;;;;;;;4876594;29;20037;-85
2021/08/17 05:05:55;;;;;;;9.63;5.53;;;;;;;;;;4888921;29;20024;-85
2021/08/17 05:08:21;;;;;;;10.23;4.72;;;;;;;;;;4880354;29;20767;-86
2021/08/17 05:10:46;;;;;;;7.97;4.68;;;;;;;;;;4879102;29;20031;-86
2021/08/17 05:13:12;;;;;;;8.52;4.70;;;;;;;;;;4861744;29;20049;-85
2021/08/17 05:15:37;;;;;;;7.23;4.47;;;;;;;;;;4883352;29;20029;-85
2021/08/17 05:18:02;;;;;;;9.48;4.80;;;;;;;;;;4884371;29;20265;-86
2021/08/17 05:20:28;;;;;;;11.45;4.78;;;;;;;;;;4888208;29;20096;-86
2021/08/17 05:22:54;;;;;;;8.18;5.00;;;;;;;;;;4877073;29;20059;-85
2021/08/17 05:25:19;;;;;;;7.65;5.30;;;;;;;;;;4884467;29;20112;-88
2021/08/17 05:27:44;;;;;;;6.07;4.00;;;;;;;;;;4877502;29;20139;-87
2021/08/17 05:30:10;;;;;;;9.05;5.22;;;;;;;;;;4880946;29;20021;-86
2021/08/17 05:32:36;;;;;;;7.72;4.30;;;;;;;;;;4875093;29;20022;-85
2021/08/17 05:35:01;;;;;;;10.48;4.60;;;;;;;;;;4877666;29;20085;-87
2021/08/17 05:37:27;;;;;;;9.18;4.60;;;;;;;;;;4870601;29;20029;-86
2021/08/17 05:39:52;;;;;;;11.38;5.32;;;;;;;;;;4886386;29;20057;-84
2021/08/17 05:42:17;;;;;;;8.90;4.93;;;;;;;;;;4881929;29;20021;-83
2021/08/17 05:44:43;;;;;;;8.23;5.47;;;;;;;;;;4876729;29;20293;-85
2021/08/17 05:47:09;;;;;;;11.27;5.22;;;;;;;;;;4883822;29;20276;-88
2021/08/17 05:49:36;;;;;;;8.30;5.38;;;;;;;;;;4885797;29;20028;-89
2021/08/17 05:52:03;;;;;;;8.77;4.93;;;;;;;;;;4881207;29;20024;-89
2021/08/17 05:54:28;;;;;;;10.18;4.78;;;;;;;;;;4877373;29;20563;-89
2021/08/17 05:56:57;;;;;;;7.65;4.82;;;;;;;;;;4879341;29;20021;-90
2021/08/17 05:59:28;;;;;;;14.03;6.00;;;;;;;;;;4878373;29;20408;-90
2021/08/17 06:01:57;;;;;;;9.05;4.95;;;;;;;;;;4879408;29;20033;-90
2021/08/17 06:04:32;;;;;;;6.78;4.88;;;;;;;;;;4885734;29;20048;-91
2021/08/17 06:07:00;;;;;;;7.25;4.60;;;;;;;;;;4874840;29;20057;-91
2021/08/17 06:09:28;;;;;;;9.40;4.72;;;;;;;;;;4860871;29;20028;-84
2021/08/17 06:11:57;;;;;;;18.77;5.90;;;;;;;;;;4876286;29;20025;-89
2021/08/17 06:14:22;;;;;;;13.93;5.57;;;;;;;;;;4881380;29;20135;-89
2021/08/17 06:16:48;;;;;;;9.13;5.10;;;;;;;;;;4879608;29;20025;-88
2021/08/17 06:19:13;;;;;;;99.70;18.10;;;;;;;;;;4878072;29;20029;-84
2021/08/17 06:21:39;;;;;;;11.10;5.60;;;;;;;;;;4878466;29;20512;-84
2021/08/17 06:24:05;;;;;;;8.45;4.70;;;;;;;;;;4874746;29;20282;-83
2021/08/17 06:26:31;;;;;;;10.38;5.00;;;;;;;;;;4874883;29;20484;-79
2021/08/17 06:28:56;;;;;;;7.45;4.75;;;;;;;;;;4876420;29;20554;-81
2021/08/17 06:31:22;;;;;;;9.73;5.53;;;;;;;;;;4874322;29;20013;-82
2021/08/17 06:33:52;;;;;;;9.20;5.57;;;;;;;;;;4878808;29;20417;-82
2021/08/17 06:36:17;;;;;;;12.63;5.63;;;;;;;;;;4880082;29;20440;-82
2021/08/17 06:38:43;;;;;;;8.38;4.60;;;;;;;;;;4883242;29;20557;-85
2021/08/17 06:41:08;;;;;;;9.77;5.75;;;;;;;;;;4879214;29;20036;-86
2021/08/17 06:43:34;;;;;;;9.55;5.32;;;;;;;;;;4884667;29;20029;-86
2021/08/17 06:45:59;;;;;;;8.88;5.40;;;;;;;;;;4884249;29;20029;-85
2021/08/17 06:48:25;;;;;;;14.00;8.05;;;;;;;;;;4883262;29;20017;-86
2021/08/17 06:50:50;;;;;;;12.07;7.25;;;;;;;;;;4876065;29;20049;-86
2021/08/17 06:53:15;;;;;;;11.82;5.55;;;;;;;;;;4878737;29;20388;-86
2021/08/17 06:55:42;;;;;;;6.82;4.63;;;;;;;;;;4884062;29;20103;-87
2021/08/17 06:58:12;;;;;;;11.65;5.30;;;;;;;;;;4884018;29;20377;-87
2021/08/17 07:00:37;;;;;;;9.60;5.55;;;;;;;;;;4893075;29;20052;-86
2021/08/17 07:03:04;;;;;;;8.02;4.57;;;;;;;;;;4884499;29;20482;-86
2021/08/17 07:05:30;;;;;;;10.57;5.70;;;;;;;;;;4883504;29;20041;-86
2021/08/17 07:07:55;;;;;;;9.00;5.20;;;;;;;;;;4880051;29;20028;-87
2021/08/17 07:10:21;;;;;;;11.05;5.50;;;;;;;;;;4881214;29;20919;-85
2021/08/17 07:12:46;;;;;;;7.97;5.00;;;;;;;;;;4884087;29;20037;-86
2021/08/17 07:15:11;;;;;;;9.27;5.73;;;;;;;;;;4879033;29;20488;-86
2021/08/17 07:17:37;;;;;;;10.38;5.60;;;;;;;;;;4885308;29;20909;-86
2021/08/17 07:20:03;;;;;;;10.75;6.20;;;;;;;;;;4880865;29;20286;-85
2021/08/17 07:22:29;;;;;;;10.52;5.82;;;;;;;;;;4875757;29;21323;-88
2021/08/17 07:24:54;;;;;;;11.27;5.73;;;;;;;;;;4882785;29;20121;-87
2021/08/17 07:27:19;;;;;;;10.32;6.05;;;;;;;;;;4884906;29;20301;-87
2021/08/17 07:29:45;;;;;;;9.30;5.13;;;;;;;;;;4880120;29;20029;-85
2021/08/17 07:32:10;;;;;;;11.52;5.65;;;;;;;;;;4879225;29;20302;-87
2021/08/17 07:34:35;;;;;;;8.90;5.47;;;;;;;;;;4878715;29;20025;-85
2021/08/17 07:37:01;;;;;;;10.95;5.82;;;;;;;;;;4878365;29;20507;-86
2021/08/17 07:39:27;;;;;;;9.98;5.95;;;;;;;;;;4876428;29;20021;-86
2021/08/17 07:41:52;;;;;;;25.73;18.02;;;;;;;;;;4880926;29;20073;-86
2021/08/17 07:44:18;;;;;;;12.70;9.27;;;;;;;;;;4882673;29;20037;-86
2021/08/17 07:46:44;;;;;;;11.85;6.03;;;;;;;;;;4883478;29;20037;-87
2021/08/17 07:49:09;;;;;;;8.82;6.18;;;;;;;;;;4881484;29;20540;-86
2021/08/17 07:51:34;;;;;;;12.40;5.55;;;;;;;;;;4878768;29;20029;-86
2021/08/17 07:54:00;;;;;;;10.25;6.15;;;;;;;;;;4877317;29;20119;-87
2021/08/17 07:56:25;;;;;;;7.80;5.13;;;;;;;;;;4877279;29;20080;-87
2021/08/17 07:58:50;;;;;;;12.23;6.40;;;;;;;;;;4882818;29;20028;-87
2021/08/17 08:01:15;;;;;;;11.23;6.27;;;;;;;;;;4885111;29;20017;-91
2021/08/17 08:03:41;;;;;;;8.55;6.05;;;;;;;;;;4883845;29;20289;-89
2021/08/17 08:06:07;;;;;;;10.17;6.90;;;;;;;;;;4877058;29;20024;-88
2021/08/17 08:08:32;;;;;;;10.10;5.78;;;;;;;;;;4881140;29;20297;-87
2021/08/17 08:10:58;;;;;;;10.55;6.05;;;;;;;;;;4880261;29;20048;-90
2021/08/17 08:13:26;;;;;;;9.20;6.13;;;;;;;;;;4877128;29;20104;-88
2021/08/17 08:15:51;;;;;;;9.10;5.72;;;;;;;;;;4880863;29;20112;-89
2021/08/17 08:18:16;;;;;;;13.93;10.35;;;;;;;;;;4879606;29;20017;-87
2021/08/17 08:20:42;;;;;;;12.93;9.75;;;;;;;;;;4871818;29;20033;-86
2021/08/17 08:26:29;;;;;;;11.18;5.93;;;;;;;;;;4881198;29;20088;-86
2021/08/17 08:28:55;;;;;;;8.93;5.63;;;;;;;;;;4878562;29;20412;-87
2021/08/17 08:31:23;;;;;;;10.93;6.28;;;;;;;;;;4875136;29;20536;-85
2021/08/17 08:33:49;;;;;;;10.80;5.45;;;;;;;;;;4877205;29;20165;-86
2021/08/17 08:36:15;;;;;;;10.38;5.43;;;;;;;;;;4881832;29;20120;-89
2021/08/17 08:38:41;;;;;;;8.30;5.95;;;;;;;;;;4882700;29;20468;-87
2021/08/17 08:41:06;;;;;;;10.30;6.00;;;;;;;;;;4879420;29;20066;-88
2021/08/17 08:43:32;;;;;;;9.35;6.45;;;;;;;;;;4878242;29;20024;-86
2021/08/17 08:46:28;;;;;;;9.50;6.13;;;;;;;;;;4862906;29;20032;-88
2021/08/17 08:48:53;;;;;;;10.50;6.72;;;;;;;;;;4876171;29;20029;-87
2021/08/17 08:51:19;;;;;;;12.90;6.15;;;;;;;;;;4878275;29;20583;-81
2021/08/17 08:53:45;;;;;;;12.23;6.80;;;;;;;;;;4880531;29;20399;-86
2021/08/17 08:56:10;;;;;;;12.57;6.13;;;;;;;;;;4876443;29;20030;-86
2021/08/17 08:58:35;;;;;;;19.65;11.48;;;;;;;;;;4886259;29;20442;-87
2021/08/17 09:01:01;;;;;;;31.08;25.05;;;;;;;;;;4876148;29;20017;-87
2021/08/17 09:03:40;;;;;;;10.02;6.50;;;;;;;;;;4876660;29;20029;-86
2021/08/17 09:06:13;;;;;;;10.43;6.53;;;;;;;;;;4880331;29;20066;-87
2021/08/17 09:08:39;;;;;;;11.95;7.15;;;;;;;;;;4878192;29;20101;-87
2021/08/17 09:11:17;;;;;;;10.27;5.80;;;;;;;;;;4879105;29;20013;-88
2021/08/17 09:13:42;;;;;;;10.00;5.70;;;;;;;;;;4882597;29;20290;-88
2021/08/17 09:16:27;;;;;;;10.18;5.90;;;;;;;;;;4879058;29;20029;-89
2021/08/17 09:18:53;;;;;;;11.82;8.88;;;;;;;;;;4877520;29;20017;-87
2021/08/17 09:21:31;;;;;;;13.80;8.77;;;;;;;;;;4884932;29;20035;-86
2021/08/17 09:23:57;;;;;;;10.98;6.43;;;;;;;;;;4879454;29;20029;-88
2021/08/17 09:26:28;;;;;;;10.38;6.30;;;;;;;;;;4876527;29;20476;-87
2021/08/17 09:28:57;;;;;;;9.10;5.85;;;;;;;;;;4874601;29;20052;-85
2021/08/17 09:31:22;;;;;;;;;;;;;;;;;;4875991;29;20021;-86
2021/08/17 09:33:48;;;;;;;9.53;5.17;;;;;;;;;;4877637;29;20408;-86
2021/08/17 09:36:13;;;;;;;8.45;5.18;;;;;;;;;;4879575;29;20500;-88
2021/08/17 09:38:38;;;;;;;7.47;4.50;;;;;;;;;;4878431;29;20056;-88
2021/08/17 09:41:17;;;;;;;10.27;5.40;;;;;;;;;;4878474;29;20067;-87
2021/08/17 09:44:03;;;;;;;8.38;5.35;;;;;;;;;;4876522;29;20265;-87
2021/08/17 09:46:33;;;;;;;9.15;5.65;;;;;;;;;;4879753;29;20208;-86
2021/08/17 09:48:58;;;;;;;;;;;;;;;;;;4876723;29;20507;-86
2021/08/17 09:51:34;;;;;;;10.07;5.10;;;;;;;;;;4874517;29;19931;-86
2021/08/17 09:54:09;;;;;;;11.05;5.30;;;;;;;;;;4876132;29;20292;-87
2021/08/17 09:56:34;;;;;;;9.90;5.82;;;;;;;;;;4875947;29;20392;-85
2021/08/17 09:59:00;;;;;;;8.15;4.93;;;;;;;;;;4879027;29;20025;-86
2021/08/17 10:01:25;;;;;;;9.88;6.07;;;;;;;;;;4885709;29;20119;-86
2021/08/17 10:03:51;;;;;;;7.93;5.03;;;;;;;;;;4875000;29;20113;-86
2021/08/17 10:06:16;;;;;;;7.10;4.63;;;;;;;;;;4877642;29;20077;-84
2021/08/17 10:08:42;;;;;;;6.93;4.25;;;;;;;;;;4878195;29;20029;-85
2021/08/17 10:11:19;;;;;;;8.70;5.28;;;;;;;;;;4873705;29;20029;-85
2021/08/17 10:13:44;;;;;;;7.95;5.38;;;;;;;;;;4878038;29;20024;-86
2021/08/17 10:16:10;;;;;;;8.05;4.32;;;;;;;;;;4876506;29;20727;-82
2021/08/17 10:18:36;;;;;;;6.32;4.40;;;;;;;;;;4887892;29;20032;-80
2021/08/17 10:21:02;;;;;;;6.15;4.07;;;;;;;;;;4871550;29;20374;-81
2021/08/17 10:23:28;;;;;;;9.07;5.00;;;;;;;;;;4875839;29;20049;-80
2021/08/17 10:25:57;;;;;;;7.53;5.05;;;;;;;;;;4874531;29;20037;-80
2021/08/17 10:28:24;;;;;;;9.90;6.32;;;;;;;;;;4875405;29;20377;-80
2021/08/17 10:30:49;;;;;;;7.63;4.50;;;;;;;;;;4873763;29;20021;-80
2021/08/17 10:33:34;;;;;;;8.80;4.53;;;;;;;;;;4876654;29;20036;-81
2021/08/17 10:36:00;;;;;;;8.55;5.03;;;;;;;;;;4880408;29;20414;-80
2021/08/17 10:38:25;;;;;;;10.77;6.68;;;;;;;;;;4877634;29;20178;-80
2021/08/17 10:40:51;;;;;;;10.67;6.30;;;;;;;;;;4875045;29;20043;-80
2021/08/17 10:43:16;;;;;;;11.25;6.70;;;;;;;;;;4882336;29;20025;-80
2021/08/17 10:45:50;;;;;;;9.03;5.43;;;;;;;;;;4892681;29;20040;-82
2021/08/17 10:48:34;;;;;;;10.30;5.43;;;;;;;;;;4893244;29;20600;-83
2021/08/17 10:50:59;;;;;;;7.45;4.63;;;;;;;;;;4891411;29;20444;-81
2021/08/17 10:53:37;;;;;;;10.23;4.73;;;;;;;;;;4879093;29;20048;-80
2021/08/17 10:56:22;;;;;;;7.15;4.80;;;;;;;;;;4876821;29;20617;-80
2021/08/17 10:58:49;;;;;;;7.00;4.10;;;;;;;;;;4886281;29;20400;-77
2021/08/17 11:01:47;;;;;;;8.63;4.10;;;;;;;;;;4879957;29;20421;-78
2021/08/17 11:04:12;;;;;;;6.55;3.88;;;;;;;;;;4875879;29;20109;-77
2021/08/17 11:06:50;;;;;;;6.35;4.18;;;;;;;;;;4879801;29;20021;-76
2021/08/17 11:09:16;;;;;;;10.70;4.43;;;;;;;;;;4877971;29;20431;-77
2021/08/17 11:11:43;;;;;;;7.72;3.55;;;;;;;;;;4877931;29;20032;-77
2021/08/17 11:14:10;;;;;;;5.47;3.60;;;;;;;;;;4876890;29;20081;-78
2021/08/17 11:16:43;;;;;;;5.75;3.95;;;;;;;;;;4880724;29;20353;-78
2021/08/17 11:19:08;;;;;;;7.90;4.25;;;;;;;;;;4877397;29;20449;-78
2021/08/17 11:21:35;;;;;;;7.80;4.43;;;;;;;;;;4863169;29;20115;-79
2021/08/17 11:24:09;;;;;;;7.13;4.47;;;;;;;;;;4879011;29;20401;-78
2021/08/17 11:26:35;;;;;;;5.90;3.60;;;;;;;;;;4878170;29;20380;-79
2021/08/17 11:29:01;;;;;;;6.45;3.67;;;;;;;;;;4882959;29;20112;-79
2021/08/17 11:31:26;;;;;;;6.47;3.83;;;;;;;;;;4879236;29;20101;-78
2021/08/17 11:34:10;;;;;;;5.05;3.22;;;;;;;;;;4882070;29;20852;-79
2021/08/17 11:36:35;;;;;;;6.10;3.83;;;;;;;;;;4878838;29;20383;-79
2021/08/17 11:39:21;;;;;;;6.60;3.83;;;;;;;;;;4880752;29;20032;-79
2021/08/17 11:41:46;;;;;;;5.63;3.45;;;;;;;;;;4879432;29;20760;-80
2021/08/17 11:44:12;;;;;;;5.30;3.60;;;;;;;;;;4880578;29;20017;-80
2021/08/17 11:46:38;;;;;;;5.60;3.58;;;;;;;;;;4874342;29;20349;-80
2021/08/17 11:49:26;;;;;;;4.80;3.20;;;;;;;;;;4882970;29;20029;-80
2021/08/17 11:51:58;;;;;;;6.15;3.90;;;;;;;;;;4868217;29;20396;-86
2021/08/17 11:54:23;;;;;;;6.03;3.63;;;;;;;;;;4876224;29;20116;-84
2021/08/17 11:56:54;;;;;;;5.95;3.92;;;;;;;;;;4888076;29;20077;-82
2021/08/17 11:59:19;;;;;;;6.40;4.05;;;;;;;;;;4876678;29;20377;-84
2021/08/17 12:01:55;;;;;;;6.50;4.03;;;;;;;;;;4877310;29;20048;-83
2021/08/17 12:04:21;;;;;;;8.52;4.35;;;;;;;;;;4877527;29;20045;-84
2021/08/17 12:07:04;;;;;;;7.00;4.32;;;;;;;;;;4876277;29;20028;-86
2021/08/17 12:09:33;;;;;;;8.50;4.22;;;;;;;;;;4884760;29;20025;-86
2021/08/17 12:11:59;;;;;;;8.15;4.22;;;;;;;;;;4877693;29;20380;-84
2021/08/17 12:14:24;;;;;;;5.55;3.75;;;;;;;;;;4877675;29;20025;-87
2021/08/17 12:16:53;;;;;;;8.63;4.35;;;;;;;;;;4879217;29;20073;-82
2021/08/17 12:19:19;;;;;;;6.93;4.13;;;;;;;;;;4875795;29;20446;-83
2021/08/17 12:21:45;;;;;;;6.65;4.38;;;;;;;;;;4881087;29;20076;-85
2021/08/17 12:24:19;;;;;;;7.40;4.07;;;;;;;;;;4879572;29;20100;-86
2021/08/17 12:26:53;;;;;;;7.63;4.82;;;;;;;;;;4881368;29;20028;-86
2021/08/17 12:29:23;;;;;;;8.32;4.72;;;;;;;;;;4879871;29;20425;-81
2021/08/17 12:31:48;;;;;;;6.03;4.30;;;;;;;;;;4879711;29;20494;-81
2021/08/17 12:34:14;;;;;;;10.15;4.38;;;;;;;;;;4882450;29;20113;-82
2021/08/17 12:36:48;;;;;;;8.00;4.47;;;;;;;;;;4880423;29;20054;-81
2021/08/17 12:39:21;;;;;;;7.35;4.82;;;;;;;;;;4880437;29;20369;-81
2021/08/17 12:41:48;;;;;;;8.45;4.75;;;;;;;;;;4880094;29;20433;-82
2021/08/17 12:44:21;;;;;;;12.82;8.80;;;;;;;;;;4872974;29;20473;-82
2021/08/17 12:47:00;;;;;;;7.72;5.13;;;;;;;;;;4876312;29;20067;-81
2021/08/17 12:49:42;;;;;;;8.55;5.05;;;;;;;;;;4885973;29;20485;-82
2021/08/17 12:52:17;;;;;;;7.10;4.97;;;;;;;;;;4879661;29;20387;-80
2021/08/17 12:54:42;;;;;;;7.80;4.38;;;;;;;;;;4872245;29;20024;-80
2021/08/17 12:57:08;;;;;;;7.23;4.30;;;;;;;;;;4881715;29;20172;-81
2021/08/17 12:59:33;;;;;;;8.02;5.00;;;;;;;;;;4877380;29;20061;-83
2021/08/17 13:01:58;;;;;;;8.18;4.60;;;;;;;;;;4874236;29;20124;-84
2021/08/17 13:04:24;;;;;;;7.30;4.40;;;;;;;;;;4875701;29;20056;-82
2021/08/17 13:06:52;;;;;;;6.75;4.70;;;;;;;;;;4873975;29;20017;-82
2021/08/17 13:09:17;;;;;;;7.93;5.05;;;;;;;;;;4882468;29;20026;-83
2021/08/17 13:11:43;;;;;;;9.43;5.07;;;;;;;;;;4872467;29;20061;-82
2021/08/17 13:14:08;;;;;;;7.80;4.72;;;;;;;;;;4875464;29;20035;-80
2021/08/17 13:16:34;;;;;;;7.13;5.00;;;;;;;;;;4879220;29;20029;-82
2021/08/17 13:18:59;;;;;;;8.83;4.80;;;;;;;;;;4878323;29;20029;-82
2021/08/17 13:21:24;;;;;;;8.13;4.82;;;;;;;;;;4864927;29;20025;-81
2021/08/17 13:23:49;;;;;;;7.90;4.50;;;;;;;;;;4875026;29;20112;-81
2021/08/17 13:26:15;;;;;;;9.27;6.00;;;;;;;;;;4856397;29;20057;-81
2021/08/17 13:28:40;;;;;;;14.47;10.37;;;;;;;;;;4884271;29;20017;-80
2021/08/17 13:31:07;;;;;;;8.93;5.10;;;;;;;;;;4867473;29;20791;-80
2021/08/17 13:33:32;;;;;;;9.57;5.90;;;;;;;;;;4874331;29;20358;-79
2021/08/17 13:35:57;;;;;;;9.33;5.23;;;;;;;;;;4874138;29;20035;-79
2021/08/17 13:38:22;;;;;;;10.07;4.87;;;;;;;;;;4876136;29;20112;-79
2021/08/17 13:40:48;;;;;;;7.60;4.80;;;;;;;;;;4873621;29;20035;-79
2021/08/17 13:43:13;;;;;;;8.90;5.30;;;;;;;;;;4876434;29;20120;-80
2021/08/17 13:45:39;;;;;;;7.70;4.93;;;;;;;;;;4877865;29;20017;-79
2021/08/17 13:48:06;;;;;;;7.13;4.83;;;;;;;;;;4882808;29;20037;-78
2021/08/17 13:50:33;;;;;;;9.98;4.78;;;;;;;;;;4876071;29;20450;-79
2021/08/17 13:52:58;;;;;;;8.23;5.20;;;;;;;;;;4887606;29;20369;-79
2021/08/17 13:55:23;;;;;;;7.03;4.93;;;;;;;;;;4876873;29;20089;-79
2021/08/17 13:57:49;;;;;;;7.07;5.05;;;;;;;;;;4883439;29;20277;-80
2021/08/17 14:00:14;;;;;;;8.13;5.27;;;;;;;;;;4857019;29;20030;-80
2021/08/17 14:02:39;;;;;;;8.27;4.57;;;;;;;;;;4875872;29;20032;-80
2021/08/17 14:05:05;;;;;;;7.03;4.68;;;;;;;;;;4877167;29;20064;-80
2021/08/17 14:07:31;;;;;;;6.82;5.07;;;;;;;;;;4882694;29;20031;-79
2021/08/17 14:09:56;;;;;;;7.93;4.87;;;;;;;;;;4874840;29;20017;-79
2021/08/17 14:12:21;;;;;;;7.97;4.90;;;;;;;;;;4880338;29;20033;-79
2021/08/17 14:14:47;;;;;;;7.40;4.93;;;;;;;;;;4876360;29;20025;-80
2021/08/17 14:17:12;;;;;;;7.17;5.07;;;;;;;;;;4870228;29;20037;-78
2021/08/17 14:19:37;;;;;;;17.13;15.10;;;;;;;;;;4875527;29;20360;-78
2021/08/17 14:22:02;;;;;;;11.43;8.60;;;;;;;;;;4882481;29;20120;-78
2021/08/17 14:24:28;;;;;;;13.70;7.93;;;;;;;;;;4870214;29;20052;-79
2021/08/17 14:26:53;;;;;;;9.90;5.87;;;;;;;;;;4879841;29;20397;-79
2021/08/17 14:29:18;;;;;;;9.67;5.90;;;;;;;;;;4875789;29;20048;-79
2021/08/17 14:31:43;;;;;;;7.88;5.75;;;;;;;;;;4886574;29;20265;-79
2021/08/17 14:34:09;;;;;;;7.67;5.43;;;;;;;;;;4882394;29;20025;-79
2021/08/17 14:36:36;;;;;;;10.63;5.93;;;;;;;;;;4873684;29;20029;-77
2021/08/17 14:39:03;;;;;;;9.68;5.05;;;;;;;;;;4875346;29;20064;-77
2021/08/17 14:41:29;;;;;;;8.25;5.40;;;;;;;;;;4881750;29;20380;-77
2021/08/17 14:43:54;;;;;;;8.65;5.53;;;;;;;;;;4877733;29;20486;-77